Aérodrome :
LOGIN :

S'inscrire | Disclaimer

   EN    FR    IT 

 










Légende :    VFR   VFR Marginal   IFR   IFR Intensif   IFR Très Intensif
Visi : 
Plafond : 
>= 8 km
>= 3000ft
5 à 8 km
1000 à 3000 ft
1500m à 5 km
500 à 1000 ft
800 à 1500m
200 à 500 ft
< 800m
< 200 ft
Symboles :   Orages  Brouillard  Fortes neiges  Fortes précipitations  Vent > 20 kt
SIGMETs :   Divers  Orages  Givrage  Turbulence  Onde Orograph.  Cendres Volcan.






- Altitude de l'aérodrome : 53 ft
- Code IATA : HAM


EDDH - Hamburg

DERNIER METAR :
  • 291420Z 05006KT 350V110 CAVOK 22/03 Q1027 NOSIG

METARs EXPIRÉS :
  • 291350Z VRB03KT CAVOK 22/03 Q1028 NOSIG
  • 291320Z VRB05KT CAVOK 21/03 Q1028 NOSIG
  • 291250Z VRB03KT CAVOK 21/02 Q1028 NOSIG
  • 291220Z VRB04KT CAVOK 21/02 Q1029 NOSIG
  • 291150Z VRB04KT CAVOK 21/02 Q1029 NOSIG

TAF TAF EDDH
Valide du 29 à 12h jusqu'au 30 à 18h UTC


291100Z 2912/3018 02004KT CAVOK
TEMPO 2917/2920 06009KT
BECMG 3007/3009 05009KT



MET'MAP, la Météo Aéronautique d'un coup d'oeil ! - Copyright ORBIFLY Décembre 2007 - Disclaimer

ORBIFLY MET'MAP TEAM :

Programmation & Développement : Alexandra Zaïnal
Sur une idée originale de : Baudouin d'Aumeries
Assistance à la programmation : Marc-Olivier Méhu
Soutien technique & logistique : Manuel Goepfert

Contact : metmap@orbifly.com




SOURCES & CREDITS :

   NOAA